Time;durP1;ratioP1;P1;durP2;ratioP2;P2;SDS_P1;SDS_P2;PMS_P1;PMS_P2;Temp;Humidity;BMP_temperature;BMP_pressure;BME280_temperature;BME280_humidity;BME280_pressure;Samples;Min_cycle;Max_cycle;Signal;HPM_P1;HPM_P2
2022/09/09 00:02:18;;;;;;;4.60;1.92;;;;;;;;;;4996877;28;20291;-68
2022/09/09 00:04:43;;;;;;;5.57;2.30;;;;;;;;;;5012406;28;20888;-70
2022/09/09 00:07:21;;;;;;;3.58;1.90;;;;;;;;;;5027640;28;20219;-71
2022/09/09 00:09:49;;;;;;;2.47;1.48;;;;;;;;;;5015494;28;20318;-71
2022/09/09 00:12:31;;;;;;;3.90;2.00;;;;;;;;;;5017557;28;20205;-70
2022/09/09 00:14:57;;;;;;;5.72;2.40;;;;;;;;;;5034309;28;20281;-70
2022/09/09 00:17:23;;;;;;;4.55;2.45;;;;;;;;;;5024543;28;20232;-70
2022/09/09 00:19:53;;;;;;;8.85;3.10;;;;;;;;;;5000080;28;20763;-71
2022/09/09 00:22:20;;;;;;;7.30;3.38;;;;;;;;;;5034189;28;20215;-70
2022/09/09 00:24:46;;;;;;;7.47;3.38;;;;;;;;;;5031536;28;20257;-71
2022/09/09 00:27:16;;;;;;;8.13;4.03;;;;;;;;;;5012065;28;20227;-70
2022/09/09 00:29:42;;;;;;;7.55;4.05;;;;;;;;;;5026849;28;20305;-70
2022/09/09 00:32:12;;;;;;;7.88;4.35;;;;;;;;;;5014902;28;20216;-70
2022/09/09 00:34:38;;;;;;;10.93;5.43;;;;;;;;;;5034454;28;20290;-71
2022/09/09 00:37:04;;;;;;;9.32;4.80;;;;;;;;;;5008656;28;20747;-70
2022/09/09 00:39:34;;;;;;;10.98;5.18;;;;;;;;;;5014133;28;20327;-72
2022/09/09 00:42:08;;;;;;;9.63;4.85;;;;;;;;;;5034265;28;20215;-72
2022/09/09 00:44:35;;;;;;;7.97;4.68;;;;;;;;;;5017730;28;20289;-70
2022/09/09 00:47:01;;;;;;;11.90;4.72;;;;;;;;;;5017412;28;20208;-72
2022/09/09 00:49:27;;;;;;;8.40;4.45;;;;;;;;;;5011896;28;20274;-72
2022/09/09 00:51:54;;;;;;;7.85;4.60;;;;;;;;;;5006858;28;20286;-72
2022/09/09 00:54:25;;;;;;;9.07;4.68;;;;;;;;;;5012923;28;21006;-73
2022/09/09 00:56:54;;;;;;;8.02;4.45;;;;;;;;;;5020586;28;20220;-70
2022/09/09 00:59:28;;;;;;;7.00;3.88;;;;;;;;;;5035560;28;20204;-69
2022/09/09 01:01:54;;;;;;;7.65;4.35;;;;;;;;;;5021562;28;20219;-69
2022/09/09 01:04:21;;;;;;;6.68;3.80;;;;;;;;;;5036392;28;20223;-70
2022/09/09 01:06:51;;;;;;;7.60;3.60;;;;;;;;;;5021295;28;20236;-71
2022/09/09 01:09:21;;;;;;;5.38;3.42;;;;;;;;;;5020118;28;20254;-69
2022/09/09 01:11:55;;;;;;;6.57;2.95;;;;;;;;;;5004791;28;20298;-70
2022/09/09 01:14:33;;;;;;;5.10;2.70;;;;;;;;;;4991565;28;20904;-68
2022/09/09 01:17:05;;;;;;;5.72;2.13;;;;;;;;;;5006325;28;20303;-70
2022/09/09 01:19:40;;;;;;;4.45;2.47;;;;;;;;;;5017172;28;20769;-70
2022/09/09 01:22:09;;;;;;;4.72;2.35;;;;;;;;;;5016861;28;20231;-70
2022/09/09 01:24:39;;;;;;;3.92;2.20;;;;;;;;;;5018276;28;20215;-70
2022/09/09 01:27:04;;;;;;;8.10;2.80;;;;;;;;;;5031805;28;20739;-69
2022/09/09 01:29:30;;;;;;;5.65;2.05;;;;;;;;;;5018631;28;20212;-70
2022/09/09 01:31:56;;;;;;;3.17;1.50;;;;;;;;;;5017641;28;20223;-68
2022/09/09 01:34:21;;;;;;;5.38;1.55;;;;;;;;;;5025305;28;20710;-69
2022/09/09 01:36:53;;;;;;;2.58;1.90;;;;;;;;;;5004664;28;20233;-70
2022/09/09 01:39:18;;;;;;;3.35;1.70;;;;;;;;;;5011443;28;20207;-68
2022/09/09 01:41:43;;;;;;;3.70;1.33;;;;;;;;;;5032521;28;20218;-71
2022/09/09 01:44:09;;;;;;;3.00;1.50;;;;;;;;;;5018225;28;20315;-70
2022/09/09 01:46:34;;;;;;;2.85;1.30;;;;;;;;;;5032750;28;20211;-68
2022/09/09 01:48:59;;;;;;;2.55;1.50;;;;;;;;;;5016526;28;20760;-69
2022/09/09 01:51:25;;;;;;;2.58;1.42;;;;;;;;;;5029207;28;20215;-70
2022/09/09 01:53:50;;;;;;;4.80;1.58;;;;;;;;;;5021691;28;20223;-70
2022/09/09 01:56:19;;;;;;;2.75;1.50;;;;;;;;;;5031339;28;20318;-70
2022/09/09 01:58:47;;;;;;;3.55;1.58;;;;;;;;;;5014856;28;20211;-70
2022/09/09 02:01:16;;;;;;;6.15;2.42;;;;;;;;;;5028623;28;20215;-70
2022/09/09 02:03:41;;;;;;;5.45;2.63;;;;;;;;;;5036114;28;20203;-70
2022/09/09 02:06:12;;;;;;;5.97;2.90;;;;;;;;;;5021475;28;20219;-69
2022/09/09 02:08:45;;;;;;;7.82;3.63;;;;;;;;;;5021412;28;20287;-69
2022/09/09 02:11:12;;;;;;;8.45;4.30;;;;;;;;;;5013122;28;20315;-72
2022/09/09 02:13:37;;;;;;;6.80;3.53;;;;;;;;;;5001743;28;20367;-69
2022/09/09 02:16:12;;;;;;;8.05;3.78;;;;;;;;;;5015895;28;20765;-69
2022/09/09 02:18:42;;;;;;;7.10;4.10;;;;;;;;;;5013347;28;20215;-70
2022/09/09 02:21:08;;;;;;;7.65;3.92;;;;;;;;;;5013885;28;20220;-69
2022/09/09 02:23:33;;;;;;;4.80;2.55;;;;;;;;;;5014152;28;20235;-69
2022/09/09 02:25:59;;;;;;;4.78;2.58;;;;;;;;;;5019291;28;20711;-70
2022/09/09 02:28:25;;;;;;;2.83;2.20;;;;;;;;;;5020912;28;20207;-71
2022/09/09 02:30:54;;;;;;;3.97;1.92;;;;;;;;;;5035967;28;20223;-71
2022/09/09 02:33:20;;;;;;;3.38;1.83;;;;;;;;;;5036226;28;20235;-69
2022/09/09 02:35:45;;;;;;;4.32;1.70;;;;;;;;;;5036068;28;20318;-68
2022/09/09 02:38:12;;;;;;;3.92;1.90;;;;;;;;;;5017329;28;20782;-70
2022/09/09 02:40:37;;;;;;;5.40;2.08;;;;;;;;;;5032093;28;20227;-70
2022/09/09 02:43:02;;;;;;;6.00;2.30;;;;;;;;;;5011028;28;20278;-69
2022/09/09 02:45:31;;;;;;;3.78;2.20;;;;;;;;;;5011367;28;20410;-68
2022/09/09 02:48:06;;;;;;;2.42;1.85;;;;;;;;;;5031088;28;20368;-69
2022/09/09 02:50:35;;;;;;;4.03;2.50;;;;;;;;;;5017802;28;20207;-68
2022/09/09 02:53:07;;;;;;;4.38;2.00;;;;;;;;;;5018252;28;20216;-71
2022/09/09 02:55:39;;;;;;;5.68;2.60;;;;;;;;;;5033874;28;20324;-71
2022/09/09 02:58:06;;;;;;;7.32;2.80;;;;;;;;;;5033922;28;20224;-71
2022/09/09 03:00:32;;;;;;;5.28;2.55;;;;;;;;;;5034881;28;20670;-71
2022/09/09 03:02:57;;;;;;;5.38;2.97;;;;;;;;;;5032707;28;20223;-69
2022/09/09 03:05:23;;;;;;;4.53;2.60;;;;;;;;;;5026801;28;20211;-70
2022/09/09 03:07:50;;;;;;;5.05;2.83;;;;;;;;;;5012818;28;20888;-71
2022/09/09 03:10:15;;;;;;;5.50;2.80;;;;;;;;;;5013204;28;20251;-69
2022/09/09 03:12:41;;;;;;;6.50;2.90;;;;;;;;;;5008120;28;20254;-69
2022/09/09 03:15:07;;;;;;;6.13;2.90;;;;;;;;;;4999601;28;20228;-70
2022/09/09 03:17:34;;;;;;;5.63;3.17;;;;;;;;;;5023766;28;20286;-69
2022/09/09 03:19:59;;;;;;;8.73;3.90;;;;;;;;;;4999670;28;20213;-69
2022/09/09 03:22:25;;;;;;;6.05;3.97;;;;;;;;;;4999568;28;20205;-68
2022/09/09 03:24:50;;;;;;;6.15;4.05;;;;;;;;;;4999814;28;20216;-70
2022/09/09 03:27:16;;;;;;;5.50;3.22;;;;;;;;;;4992500;28;20228;-69
2022/09/09 03:29:41;;;;;;;7.03;4.00;;;;;;;;;;4992542;28;20197;-69
2022/09/09 03:32:06;;;;;;;7.68;3.88;;;;;;;;;;4992853;28;21049;-69
2022/09/09 03:34:32;;;;;;;5.30;3.40;;;;;;;;;;4999181;28;20208;-69
2022/09/09 03:36:57;;;;;;;5.40;3.55;;;;;;;;;;5003217;28;20282;-70
2022/09/09 03:39:22;;;;;;;5.50;3.85;;;;;;;;;;4960442;28;1174100;-69
2022/09/09 03:41:48;;;;;;;8.10;4.38;;;;;;;;;;5004542;28;20735;-70
2022/09/09 03:44:13;;;;;;;6.43;4.38;;;;;;;;;;5017803;28;20231;-69
2022/09/09 03:46:39;;;;;;;7.25;4.30;;;;;;;;;;5019121;28;20219;-70
2022/09/09 03:49:04;;;;;;;9.63;4.47;;;;;;;;;;5014530;28;20219;-71
2022/09/09 03:51:30;;;;;;;7.45;3.45;;;;;;;;;;5009113;28;20289;-69
2022/09/09 03:53:56;;;;;;;7.47;4.00;;;;;;;;;;5012175;28;20212;-69
2022/09/09 03:56:22;;;;;;;6.78;3.80;;;;;;;;;;5029079;28;20296;-70
2022/09/09 03:58:47;;;;;;;9.23;4.03;;;;;;;;;;5000949;28;20911;-70
2022/09/09 04:01:13;;;;;;;7.32;3.75;;;;;;;;;;5014339;28;20228;-70
2022/09/09 04:03:38;;;;;;;7.55;3.90;;;;;;;;;;5015380;28;20220;-69
2022/09/09 04:06:04;;;;;;;9.20;4.85;;;;;;;;;;4999781;28;20216;-71
2022/09/09 04:08:31;;;;;;;6.97;4.15;;;;;;;;;;4999229;28;20216;-70
2022/09/09 04:10:57;;;;;;;6.47;4.05;;;;;;;;;;5010516;28;20220;-69
2022/09/09 04:13:23;;;;;;;8.00;4.30;;;;;;;;;;4995074;28;20618;-69
2022/09/09 04:15:52;;;;;;;8.68;4.93;;;;;;;;;;5006400;28;20287;-71
2022/09/09 04:18:19;;;;;;;10.10;4.53;;;;;;;;;;5013261;28;20739;-69
2022/09/09 04:20:45;;;;;;;8.40;4.65;;;;;;;;;;5019539;28;20306;-70
2022/09/09 04:23:11;;;;;;;8.20;3.90;;;;;;;;;;5018076;28;20238;-68
2022/09/09 04:25:37;;;;;;;9.45;4.07;;;;;;;;;;5019300;28;20327;-69
2022/09/09 04:28:03;;;;;;;8.45;4.72;;;;;;;;;;5033943;28;20302;-70
2022/09/09 04:30:28;;;;;;;11.40;4.70;;;;;;;;;;5033535;28;20889;-71
2022/09/09 04:32:53;;;;;;;7.43;4.10;;;;;;;;;;5018811;28;20258;-68
2022/09/09 04:35:19;;;;;;;7.15;3.75;;;;;;;;;;5027119;28;20315;-69
2022/09/09 04:37:45;;;;;;;9.52;4.30;;;;;;;;;;4996753;28;20226;-70
2022/09/09 04:40:10;;;;;;;5.85;3.80;;;;;;;;;;5007755;28;20236;-69
2022/09/09 04:42:36;;;;;;;6.85;3.92;;;;;;;;;;4999000;28;20708;-69
2022/09/09 04:45:01;;;;;;;7.88;4.35;;;;;;;;;;4999021;28;20298;-69
2022/09/09 04:47:27;;;;;;;8.88;4.40;;;;;;;;;;5033910;28;20212;-70
2022/09/09 04:49:54;;;;;;;6.90;3.80;;;;;;;;;;5018148;28;20216;-70
2022/09/09 04:52:20;;;;;;;7.95;3.45;;;;;;;;;;5022261;28;20218;-70
2022/09/09 04:54:45;;;;;;;7.07;3.70;;;;;;;;;;5018624;28;20228;-69
2022/09/09 04:57:11;;;;;;;8.82;4.05;;;;;;;;;;5012794;28;20219;-70
2022/09/09 04:59:37;;;;;;;6.72;3.40;;;;;;;;;;5011722;28;20319;-68
2022/09/09 05:02:03;;;;;;;5.85;3.25;;;;;;;;;;5011480;28;20623;-68
2022/09/09 05:04:28;;;;;;;6.43;3.35;;;;;;;;;;5004660;28;20215;-68
2022/09/09 05:06:54;;;;;;;7.90;3.75;;;;;;;;;;5019727;28;20299;-67
2022/09/09 05:09:19;;;;;;;6.63;3.00;;;;;;;;;;5009279;28;20546;-65
2022/09/09 05:11:44;;;;;;;9.87;3.60;;;;;;;;;;5012299;28;20417;-70
2022/09/09 05:14:11;;;;;;;8.17;3.80;;;;;;;;;;5028591;28;20432;-69
2022/09/09 05:16:37;;;;;;;8.23;3.47;;;;;;;;;;5026301;28;20889;-70
2022/09/09 05:19:03;;;;;;;7.65;3.80;;;;;;;;;;5028790;28;20239;-72
2022/09/09 05:21:29;;;;;;;7.82;3.35;;;;;;;;;;5029762;28;20203;-73
2022/09/09 05:23:54;;;;;;;7.68;3.15;;;;;;;;;;5026216;28;20220;-72
2022/09/09 05:26:20;;;;;;;5.65;2.80;;;;;;;;;;5016619;28;20240;-70
2022/09/09 05:28:46;;;;;;;5.30;3.25;;;;;;;;;;5017113;28;20362;-72
2022/09/09 05:31:12;;;;;;;7.20;3.42;;;;;;;;;;5018780;28;20639;-71
2022/09/09 05:33:40;;;;;;;10.23;3.15;;;;;;;;;;5025983;28;20208;-74
2022/09/09 05:36:06;;;;;;;9.68;3.50;;;;;;;;;;5017126;28;20706;-73
2022/09/09 05:38:32;;;;;;;9.93;3.35;;;;;;;;;;5020906;28;20693;-69
2022/09/09 05:40:59;;;;;;;10.90;3.10;;;;;;;;;;5016927;28;20231;-69
2022/09/09 05:43:25;;;;;;;12.10;3.50;;;;;;;;;;5018262;28;20524;-68
2022/09/09 05:46:01;;;;;;;12.18;3.28;;;;;;;;;;5018892;28;20431;-69
2022/09/09 05:48:28;;;;;;;7.90;3.17;;;;;;;;;;5018441;28;20219;-68
2022/09/09 05:50:54;;;;;;;6.90;3.13;;;;;;;;;;5018664;28;20220;-69
2022/09/09 05:53:20;;;;;;;12.38;3.83;;;;;;;;;;5021916;28;20216;-69
2022/09/09 05:55:45;;;;;;;10.52;2.85;;;;;;;;;;5018279;28;20247;-70
2022/09/09 05:58:10;;;;;;;7.95;2.50;;;;;;;;;;5027078;28;20291;-68
2022/09/09 06:00:37;;;;;;;8.73;2.85;;;;;;;;;;5027167;28;20263;-69
2022/09/09 06:03:03;;;;;;;9.38;2.90;;;;;;;;;;5027913;28;20236;-66
2022/09/09 06:05:29;;;;;;;9.63;3.00;;;;;;;;;;5021563;28;20239;-68
2022/09/09 06:07:55;;;;;;;10.68;3.05;;;;;;;;;;5018815;28;20216;-71
2022/09/09 06:10:20;;;;;;;9.82;2.78;;;;;;;;;;5018465;28;20223;-70
2022/09/09 06:12:45;;;;;;;11.32;2.90;;;;;;;;;;5017755;28;20197;-68
2022/09/09 06:15:10;;;;;;;7.82;3.30;;;;;;;;;;5020189;28;20231;-69
2022/09/09 06:17:36;;;;;;;11.23;3.10;;;;;;;;;;5020341;28;20419;-64
2022/09/09 06:20:02;;;;;;;8.57;2.58;;;;;;;;;;5028831;28;20801;-66
2022/09/09 06:22:27;;;;;;;7.38;2.40;;;;;;;;;;5028152;28;20219;-62
2022/09/09 06:24:53;;;;;;;7.55;2.30;;;;;;;;;;5028546;28;20246;-62
2022/09/09 06:27:18;;;;;;;11.07;2.42;;;;;;;;;;5028307;28;20218;-64
2022/09/09 06:29:44;;;;;;;5.05;2.00;;;;;;;;;;5028202;28;20207;-61
2022/09/09 06:32:09;;;;;;;6.93;2.50;;;;;;;;;;5028615;28;20691;-62
2022/09/09 06:34:36;;;;;;;8.50;2.15;;;;;;;;;;5028797;28;20212;-63
2022/09/09 06:37:01;;;;;;;6.85;1.95;;;;;;;;;;5027406;28;20204;-62
2022/09/09 06:39:26;;;;;;;7.45;2.67;;;;;;;;;;5031286;28;20289;-62
2022/09/09 06:41:53;;;;;;;8.02;2.33;;;;;;;;;;5032568;28;20585;-62
2022/09/09 06:44:18;;;;;;;8.68;2.70;;;;;;;;;;5031198;28;20558;-63
2022/09/09 06:46:44;;;;;;;8.32;2.35;;;;;;;;;;5030957;28;20234;-62
2022/09/09 06:49:09;;;;;;;6.82;2.00;;;;;;;;;;5031504;28;20204;-62
2022/09/09 06:51:35;;;;;;;7.15;1.85;;;;;;;;;;5037523;28;20567;-62
2022/09/09 06:54:02;;;;;;;7.35;2.28;;;;;;;;;;5023828;28;20200;-61
2022/09/09 06:56:28;;;;;;;9.60;1.90;;;;;;;;;;5030653;28;20218;-61
2022/09/09 06:58:54;;;;;;;11.48;2.38;;;;;;;;;;5031766;28;20212;-62
2022/09/09 07:01:20;;;;;;;9.43;2.03;;;;;;;;;;5029723;28;20212;-63
2022/09/09 07:03:47;;;;;;;7.45;2.17;;;;;;;;;;5027102;28;20200;-63
2022/09/09 07:06:14;;;;;;;6.70;2.20;;;;;;;;;;5031349;28;20691;-62
2022/09/09 07:08:40;;;;;;;8.82;2.00;;;;;;;;;;5030156;28;20330;-62
2022/09/09 07:11:05;;;;;;;9.35;1.90;;;;;;;;;;5030593;28;20223;-63
2022/09/09 07:13:31;;;;;;;9.73;2.00;;;;;;;;;;5032082;28;20216;-63
2022/09/09 07:16:05;;;;;;;9.05;2.00;;;;;;;;;;5037594;28;20586;-64
2022/09/09 07:18:30;;;;;;;9.73;2.63;;;;;;;;;;5029428;28;20204;-64
2022/09/09 07:20:56;;;;;;;8.68;2.17;;;;;;;;;;5031747;28;20224;-64
2022/09/09 07:23:22;;;;;;;8.05;2.15;;;;;;;;;;5029501;28;20215;-64
2022/09/09 07:25:47;;;;;;;8.75;2.17;;;;;;;;;;5032160;28;20261;-64
2022/09/09 07:28:13;;;;;;;8.38;1.80;;;;;;;;;;5032823;28;20227;-64
2022/09/09 07:30:38;;;;;;;8.38;2.10;;;;;;;;;;5032265;28;20203;-68
2022/09/09 07:33:04;;;;;;;11.25;2.53;;;;;;;;;;5032217;28;20742;-68
2022/09/09 07:35:29;;;;;;;10.35;2.63;;;;;;;;;;5033480;28;20228;-68
2022/09/09 07:37:54;;;;;;;11.80;2.30;;;;;;;;;;5031797;28;20291;-68
2022/09/09 07:40:21;;;;;;;10.90;2.00;;;;;;;;;;5031938;28;20338;-67
2022/09/09 07:42:47;;;;;;;11.35;2.75;;;;;;;;;;5031857;28;20212;-65
2022/09/09 07:45:12;;;;;;;10.55;2.30;;;;;;;;;;5032563;28;20254;-66
2022/09/09 07:47:38;;;;;;;10.73;2.72;;;;;;;;;;5028367;28;20311;-64
2022/09/09 07:50:03;;;;;;;10.35;2.70;;;;;;;;;;5028182;28;20266;-64
2022/09/09 07:52:28;;;;;;;9.93;2.50;;;;;;;;;;5041691;28;20247;-64
2022/09/09 07:54:54;;;;;;;8.30;2.20;;;;;;;;;;5050701;28;20215;-64
2022/09/09 07:57:19;;;;;;;11.45;2.30;;;;;;;;;;5050455;28;20207;-65
2022/09/09 07:59:45;;;;;;;8.93;1.85;;;;;;;;;;5050096;28;20233;-64
2022/09/09 08:02:11;;;;;;;7.40;1.90;;;;;;;;;;5050171;28;20222;-64
2022/09/09 08:04:36;;;;;;;10.10;2.22;;;;;;;;;;5049427;28;20282;-64
2022/09/09 08:07:03;;;;;;;11.05;3.17;;;;;;;;;;5048570;28;20314;-64
2022/09/09 08:09:28;;;;;;;9.65;2.17;;;;;;;;;;5050279;28;20713;-64
2022/09/09 08:11:56;;;;;;;8.52;2.10;;;;;;;;;;5050479;28;20261;-64
2022/09/09 08:14:22;;;;;;;8.35;2.13;;;;;;;;;;5028937;28;20207;-64
2022/09/09 08:16:48;;;;;;;7.10;1.95;;;;;;;;;;5034889;28;20239;-64
2022/09/09 08:19:15;;;;;;;5.82;1.92;;;;;;;;;;5028061;28;20294;-64
2022/09/09 08:21:40;;;;;;;8.68;2.20;;;;;;;;;;5029682;28;20295;-65
2022/09/09 08:24:06;;;;;;;9.02;2.50;;;;;;;;;;5028558;28;20287;-64
2022/09/09 08:26:32;;;;;;;11.45;2.40;;;;;;;;;;5027387;28;20548;-64
2022/09/09 08:28:58;;;;;;;10.95;2.03;;;;;;;;;;5028213;28;20211;-64
2022/09/09 08:31:24;;;;;;;9.48;2.30;;;;;;;;;;5028758;28;20280;-64
2022/09/09 08:33:49;;;;;;;7.10;2.53;;;;;;;;;;5028009;28;20257;-64
2022/09/09 08:36:15;;;;;;;13.15;2.30;;;;;;;;;;5028350;28;20220;-64
2022/09/09 08:38:42;;;;;;;11.45;2.17;;;;;;;;;;5028981;28;20212;-64
2022/09/09 08:41:13;;;;;;;13.60;1.95;;;;;;;;;;5029308;28;20228;-64
2022/09/09 08:43:39;;;;;;;8.65;2.30;;;;;;;;;;5027902;28;20196;-64
2022/09/09 08:46:07;;;;;;;7.90;2.08;;;;;;;;;;5029579;28;20222;-64
2022/09/09 08:48:46;;;;;;;8.02;2.00;;;;;;;;;;5007718;28;20219;-64
2022/09/09 08:51:12;;;;;;;9.23;2.00;;;;;;;;;;5013493;28;20480;-64
2022/09/09 08:53:38;;;;;;;9.95;2.00;;;;;;;;;;5048586;28;20222;-64
2022/09/09 08:56:08;;;;;;;7.47;2.00;;;;;;;;;;5047039;28;20288;-64
2022/09/09 08:58:34;;;;;;;7.07;1.70;;;;;;;;;;5048449;28;20211;-65
2022/09/09 09:01:23;;;;;;;13.00;1.90;;;;;;;;;;5047960;28;20226;-65
2022/09/09 09:03:56;;;;;;;7.53;1.83;;;;;;;;;;5047325;28;20235;-64
2022/09/09 09:06:36;;;;;;;10.52;1.90;;;;;;;;;;5049205;28;20211;-64
2022/09/09 09:09:14;;;;;;;8.27;2.03;;;;;;;;;;5047944;28;20213;-64
2022/09/09 09:11:42;;;;;;;8.00;1.98;;;;;;;;;;5047786;28;20207;-65
2022/09/09 09:14:17;;;;;;;7.75;2.75;;;;;;;;;;5047616;28;20257;-65
2022/09/09 09:16:53;;;;;;;10.18;2.35;;;;;;;;;;5037886;28;20219;-64
2022/09/09 09:19:22;;;;;;;10.98;2.53;;;;;;;;;;5028726;28;20254;-64
2022/09/09 09:21:56;;;;;;;6.78;1.80;;;;;;;;;;5027671;28;20250;-64
2022/09/09 09:24:23;;;;;;;5.88;1.58;;;;;;;;;;5028001;28;20216;-64
2022/09/09 09:26:49;;;;;;;9.00;1.60;;;;;;;;;;5029145;28;20238;-64
2022/09/09 09:29:16;;;;;;;7.40;1.58;;;;;;;;;;5027352;28;20211;-64
2022/09/09 09:31:49;;;;;;;7.70;1.80;;;;;;;;;;5027077;28;20871;-65
2022/09/09 09:34:14;;;;;;;6.40;1.52;;;;;;;;;;5027589;28;20230;-63
2022/09/09 09:36:41;;;;;;;7.57;1.45;;;;;;;;;;5029433;28;20219;-64
2022/09/09 09:39:06;;;;;;;10.45;1.70;;;;;;;;;;5026439;28;20214;-64
2022/09/09 09:41:34;;;;;;;9.63;1.60;;;;;;;;;;5028873;28;20211;-72
2022/09/09 09:44:00;;;;;;;8.07;1.58;;;;;;;;;;5028079;28;20215;-76
2022/09/09 09:46:26;;;;;;;7.28;1.77;;;;;;;;;;5027806;28;20322;-84
2022/09/09 09:49:01;;;;;;;11.07;2.28;;;;;;;;;;5027861;28;20299;-74
2022/09/09 09:51:27;;;;;;;6.55;1.77;;;;;;;;;;5033200;28;20631;-72
2022/09/09 09:53:53;;;;;;;8.25;2.17;;;;;;;;;;5048145;28;20686;-77
2022/09/09 09:56:25;;;;;;;5.22;1.40;;;;;;;;;;5047092;28;20302;-71
2022/09/09 09:58:51;;;;;;;8.23;1.35;;;;;;;;;;5047600;28;20298;-73
2022/09/09 10:01:24;;;;;;;7.45;1.50;;;;;;;;;;5047234;28;20745;-71
2022/09/09 10:03:51;;;;;;;6.55;1.45;;;;;;;;;;5047082;28;20212;-72
2022/09/09 10:06:17;;;;;;;9.48;1.60;;;;;;;;;;5046252;28;20211;-73
2022/09/09 10:08:46;;;;;;;8.45;1.48;;;;;;;;;;5048824;28;20293;-72
2022/09/09 10:11:11;;;;;;;7.68;1.40;;;;;;;;;;5048042;28;20230;-78
2022/09/09 10:13:59;;;;;;;7.32;1.33;;;;;;;;;;5048571;28;20207;-72
2022/09/09 10:16:28;;;;;;;9.40;1.30;;;;;;;;;;5044042;28;20219;-73
2022/09/09 10:18:54;;;;;;;7.75;1.38;;;;;;;;;;5032748;28;20602;-73
2022/09/09 10:21:25;;;;;;;6.97;1.60;;;;;;;;;;5031401;28;20220;-72
2022/09/09 10:23:51;;;;;;;8.73;1.50;;;;;;;;;;5031490;28;20235;-74
2022/09/09 10:26:20;;;;;;;10.07;2.20;;;;;;;;;;5031901;28;20580;-73
2022/09/09 10:28:58;;;;;;;6.75;1.52;;;;;;;;;;5030739;28;20244;-73
2022/09/09 10:31:25;;;;;;;6.60;1.40;;;;;;;;;;5030152;28;20207;-72
2022/09/09 10:33:51;;;;;;;9.18;1.63;;;;;;;;;;5031167;28;20211;-73
2022/09/09 10:36:18;;;;;;;8.10;1.73;;;;;;;;;;5031083;28;20238;-73
2022/09/09 10:38:45;;;;;;;8.73;1.83;;;;;;;;;;5031398;28;20947;-74
2022/09/09 10:41:11;;;;;;;7.47;1.77;;;;;;;;;;5030414;28;20227;-73
2022/09/09 10:43:39;;;;;;;5.82;1.33;;;;;;;;;;5031642;28;20212;-72
2022/09/09 10:46:13;;;;;;;5.82;1.55;;;;;;;;;;5031397;28;20228;-75
2022/09/09 10:48:41;;;;;;;8.98;1.45;;;;;;;;;;5031368;28;20218;-74
2022/09/09 10:51:17;;;;;;;10.50;1.85;;;;;;;;;;5031892;28;20243;-73
2022/09/09 10:53:49;;;;;;;8.02;1.98;;;;;;;;;;5030773;28;20639;-74
2022/09/09 10:56:16;;;;;;;6.75;1.50;;;;;;;;;;5030743;28;20224;-74
2022/09/09 10:58:47;;;;;;;8.10;1.65;;;;;;;;;;5030614;28;20214;-76
2022/09/09 11:01:20;;;;;;;7.45;1.50;;;;;;;;;;5031051;28;20211;-74
2022/09/09 11:03:47;;;;;;;5.60;1.58;;;;;;;;;;5031361;28;20211;-73
2022/09/09 11:06:14;;;;;;;8.38;1.45;;;;;;;;;;5031573;28;20211;-73
2022/09/09 11:08:40;;;;;;;9.68;1.88;;;;;;;;;;5030521;28;20204;-76
2022/09/09 11:11:17;;;;;;;8.60;1.90;;;;;;;;;;5030518;28;20215;-75
2022/09/09 11:13:48;;;;;;;9.13;1.35;;;;;;;;;;5030460;28;20219;-74
2022/09/09 11:16:28;;;;;;;6.50;1.40;;;;;;;;;;5036689;28;20502;-73
2022/09/09 11:18:56;;;;;;;7.47;1.40;;;;;;;;;;4994373;28;20216;-77
2022/09/09 11:21:24;;;;;;;5.68;1.40;;;;;;;;;;5026507;28;20240;-73
2022/09/09 11:23:52;;;;;;;7.93;1.50;;;;;;;;;;5026002;28;20236;-74
2022/09/09 11:26:24;;;;;;;6.88;1.08;;;;;;;;;;5011344;28;20227;-74
2022/09/09 11:28:51;;;;;;;9.02;1.30;;;;;;;;;;5010173;28;20688;-73
2022/09/09 11:31:16;;;;;;;7.10;1.67;;;;;;;;;;5009034;28;20303;-74
2022/09/09 11:33:51;;;;;;;8.95;1.65;;;;;;;;;;5011470;28;20295;-74
2022/09/09 11:36:31;;;;;;;6.45;1.30;;;;;;;;;;5014093;28;20277;-77
2022/09/09 11:38:58;;;;;;;7.80;1.40;;;;;;;;;;5029397;28;20269;-73
2022/09/09 11:41:24;;;;;;;6.45;1.63;;;;;;;;;;5029281;28;20307;-73
2022/09/09 11:43:51;;;;;;;7.00;1.80;;;;;;;;;;5029709;28;20295;-73
2022/09/09 11:46:17;;;;;;;6.40;1.40;;;;;;;;;;5028470;28;20207;-74
2022/09/09 11:48:46;;;;;;;6.00;1.40;;;;;;;;;;5029519;28;20208;-74
2022/09/09 11:51:12;;;;;;;9.20;1.75;;;;;;;;;;5029395;28;20208;-74
2022/09/09 11:53:49;;;;;;;10.55;1.60;;;;;;;;;;5030373;28;20615;-73
2022/09/09 11:56:22;;;;;;;9.57;1.80;;;;;;;;;;5029170;28;20277;-72
2022/09/09 11:59:05;;;;;;;6.47;1.60;;;;;;;;;;5027553;28;20675;-74
2022/09/09 12:01:30;;;;;;;5.35;1.65;;;;;;;;;;5001828;28;20564;-72
2022/09/09 12:04:01;;;;;;;6.50;1.27;;;;;;;;;;5010869;28;20227;-72
2022/09/09 12:06:31;;;;;;;6.38;1.10;;;;;;;;;;5021740;28;20572;-76
2022/09/09 12:09:04;;;;;;;8.25;1.70;;;;;;;;;;5029385;28;20686;-73
2022/09/09 12:11:30;;;;;;;4.97;1.23;;;;;;;;;;5030371;28;20679;-73
2022/09/09 12:13:56;;;;;;;6.78;1.42;;;;;;;;;;5029958;28;20227;-72
2022/09/09 12:16:28;;;;;;;7.07;1.60;;;;;;;;;;5036240;28;20227;-72
2022/09/09 12:19:02;;;;;;;8.02;1.60;;;;;;;;;;5030474;28;20231;-73
2022/09/09 12:21:33;;;;;;;4.78;1.50;;;;;;;;;;5028206;28;20257;-72
2022/09/09 12:24:03;;;;;;;7.90;1.85;;;;;;;;;;5030458;28;20246;-73
2022/09/09 12:26:31;;;;;;;5.88;2.03;;;;;;;;;;5029968;28;20211;-72
2022/09/09 12:29:03;;;;;;;6.07;1.33;;;;;;;;;;5028359;28;20208;-72
2022/09/09 12:31:34;;;;;;;5.75;1.33;;;;;;;;;;5029758;28;20216;-72
2022/09/09 12:34:16;;;;;;;7.03;1.25;;;;;;;;;;5028083;28;20216;-71
2022/09/09 12:36:42;;;;;;;4.82;1.20;;;;;;;;;;5027822;28;20219;-72
2022/09/09 12:39:16;;;;;;;4.93;1.60;;;;;;;;;;5028223;28;20569;-71
2022/09/09 12:41:41;;;;;;;3.85;1.00;;;;;;;;;;5028247;28;20221;-77
2022/09/09 12:44:08;;;;;;;5.05;1.48;;;;;;;;;;5028378;28;20211;-74
2022/09/09 12:46:41;;;;;;;3.80;1.20;;;;;;;;;;5028310;28;20605;-77
2022/09/09 12:49:21;;;;;;;4.05;1.25;;;;;;;;;;5027275;28;20223;-74
2022/09/09 12:51:47;;;;;;;6.65;1.55;;;;;;;;;;5028754;28;20282;-74
2022/09/09 12:54:12;;;;;;;6.18;1.30;;;;;;;;;;5029515;28;20370;-75
2022/09/09 12:56:39;;;;;;;5.13;1.38;;;;;;;;;;5026456;28;20599;-74
2022/09/09 12:59:04;;;;;;;4.35;1.00;;;;;;;;;;5029614;28;20219;-76
2022/09/09 13:01:30;;;;;;;5.47;1.10;;;;;;;;;;5029144;28;20590;-77
2022/09/09 13:03:56;;;;;;;5.72;1.20;;;;;;;;;;5027695;28;20289;-74
2022/09/09 13:06:22;;;;;;;3.22;1.02;;;;;;;;;;5028121;28;20239;-75
2022/09/09 13:08:48;;;;;;;3.95;1.08;;;;;;;;;;5029665;28;20238;-76
2022/09/09 13:11:15;;;;;;;6.18;1.30;;;;;;;;;;5028513;28;20679;-74
2022/09/09 13:13:41;;;;;;;6.18;1.13;;;;;;;;;;5028407;28;20211;-75
2022/09/09 13:16:08;;;;;;;3.35;1.00;;;;;;;;;;5033097;28;20273;-75
2022/09/09 13:18:34;;;;;;;3.80;1.02;;;;;;;;;;5029138;28;20238;-74
2022/09/09 13:20:59;;;;;;;3.88;1.27;;;;;;;;;;5028280;28;20208;-75
2022/09/09 13:23:26;;;;;;;4.93;1.50;;;;;;;;;;5028367;28;20218;-82
2022/09/09 13:25:53;;;;;;;3.47;1.10;;;;;;;;;;5029562;28;20220;-74
2022/09/09 13:28:21;;;;;;;5.25;1.25;;;;;;;;;;5029032;28;20235;-73
2022/09/09 13:30:54;;;;;;;5.30;1.38;;;;;;;;;;5023452;28;20265;-75
2022/09/09 13:33:21;;;;;;;4.65;2.05;;;;;;;;;;5026151;28;20293;-75
2022/09/09 13:35:49;;;;;;;5.43;1.70;;;;;;;;;;5025654;28;20227;-74
2022/09/09 13:38:14;;;;;;;5.28;1.70;;;;;;;;;;5026566;28;20227;-77
2022/09/09 13:40:40;;;;;;;5.18;1.90;;;;;;;;;;5029296;28;20231;-73
2022/09/09 13:43:05;;;;;;;4.93;1.50;;;;;;;;;;5029060;28;20230;-76
2022/09/09 13:45:30;;;;;;;6.25;1.60;;;;;;;;;;5026803;28;20613;-73
2022/09/09 13:47:56;;;;;;;4.88;1.33;;;;;;;;;;5029096;28;20215;-73
2022/09/09 13:50:22;;;;;;;4.05;1.50;;;;;;;;;;5031000;28;20603;-74
2022/09/09 13:52:49;;;;;;;7.25;1.83;;;;;;;;;;5012058;28;20211;-71
2022/09/09 13:55:15;;;;;;;4.05;1.48;;;;;;;;;;5031257;28;20595;-76
2022/09/09 13:57:50;;;;;;;7.15;1.67;;;;;;;;;;5033056;28;20220;-73
2022/09/09 14:00:15;;;;;;;5.88;1.60;;;;;;;;;;5029945;28;20738;-76
2022/09/09 14:02:40;;;;;;;5.18;1.50;;;;;;;;;;5033221;28;20311;-74
2022/09/09 14:05:06;;;;;;;6.68;2.15;;;;;;;;;;5032434;28;20242;-73
2022/09/09 14:07:31;;;;;;;5.53;1.80;;;;;;;;;;5032045;28;20212;-74
2022/09/09 14:09:57;;;;;;;4.50;1.42;;;;;;;;;;5032938;28;20314;-75
2022/09/09 14:12:22;;;;;;;7.22;1.70;;;;;;;;;;5030511;28;20208;-74
2022/09/09 14:14:48;;;;;;;4.55;1.50;;;;;;;;;;5031263;28;20623;-74
2022/09/09 14:17:14;;;;;;;4.07;0.95;;;;;;;;;;5038814;28;20586;-77
2022/09/09 14:19:39;;;;;;;5.05;1.15;;;;;;;;;;5031972;28;20298;-75
2022/09/09 14:22:05;;;;;;;7.18;1.13;;;;;;;;;;5030871;28;20685;-74
2022/09/09 14:24:30;;;;;;;2.97;1.10;;;;;;;;;;5032784;28;20610;-77
2022/09/09 14:26:56;;;;;;;6.25;1.17;;;;;;;;;;5032039;28;20208;-75
2022/09/09 14:29:21;;;;;;;5.90;1.50;;;;;;;;;;5015382;28;20197;-76
2022/09/09 14:31:46;;;;;;;6.00;1.40;;;;;;;;;;5011364;28;20258;-75
2022/09/09 14:34:12;;;;;;;6.88;1.60;;;;;;;;;;5010239;28;20231;-75
2022/09/09 14:36:37;;;;;;;6.40;1.95;;;;;;;;;;5017338;28;20733;-76
2022/09/09 14:39:04;;;;;;;4.78;1.30;;;;;;;;;;5032043;28;20262;-75
2022/09/09 14:41:29;;;;;;;5.95;1.40;;;;;;;;;;5030225;28;20231;-79
2022/09/09 14:43:55;;;;;;;4.47;1.20;;;;;;;;;;5032371;28;20207;-75